createdAt,value
2023-01-25T00:00:55.139Z,0.00
2023-01-25T00:01:55.177Z,0.00
2023-01-25T00:02:55.205Z,0.00
2023-01-25T00:03:55.112Z,0.00
2023-01-25T00:04:55.098Z,0.00
2023-01-25T00:05:55.074Z,0.00
2023-01-25T00:06:55.076Z,0.00
2023-01-25T00:07:55.059Z,0.00
2023-01-25T00:08:55.056Z,0.00
2023-01-25T00:09:55.036Z,0.00
2023-01-25T00:10:57.476Z,0.00
2023-01-25T00:11:55.020Z,0.00
2023-01-25T00:12:55.002Z,0.00
2023-01-25T00:13:55.017Z,0.00
2023-01-25T00:14:54.989Z,0.00
2023-01-25T00:15:54.970Z,0.00
2023-01-25T00:16:55.003Z,0.00
2023-01-25T00:17:54.963Z,0.00
2023-01-25T00:18:54.932Z,0.00
2023-01-25T00:19:54.919Z,0.00
2023-01-25T00:20:54.919Z,0.00
2023-01-25T00:21:54.898Z,0.00
2023-01-25T00:22:54.888Z,0.00
2023-01-25T00:23:54.893Z,0.00
2023-01-25T00:24:54.880Z,0.00
2023-01-25T00:25:55.091Z,0.00
2023-01-25T00:26:54.855Z,0.00
2023-01-25T00:27:54.831Z,0.00
2023-01-25T00:28:54.828Z,0.00
2023-01-25T00:29:54.837Z,0.00
2023-01-25T00:30:54.809Z,0.00
2023-01-25T00:31:54.907Z,0.00
2023-01-25T00:32:54.778Z,0.00
2023-01-25T00:33:54.775Z,0.00
2023-01-25T00:34:54.767Z,0.00
2023-01-25T00:35:54.749Z,0.00
2023-01-25T00:36:54.743Z,0.00
2023-01-25T00:37:54.723Z,0.00
2023-01-25T00:38:54.719Z,0.00
2023-01-25T00:39:54.716Z,0.00
2023-01-25T00:40:54.705Z,0.00
2023-01-25T00:41:54.684Z,0.00
2023-01-25T00:42:54.672Z,0.00
2023-01-25T00:43:54.668Z,0.00
2023-01-25T00:44:54.644Z,0.00
2023-01-25T00:45:54.713Z,0.00
2023-01-25T00:46:54.626Z,0.00
2023-01-25T00:47:54.622Z,0.00
2023-01-25T00:48:54.607Z,0.00
2023-01-25T00:49:54.598Z,0.00
2023-01-25T00:50:54.608Z,0.00
2023-01-25T00:51:54.603Z,0.00
2023-01-25T00:52:54.560Z,0.00
2023-01-25T00:53:54.546Z,0.00
2023-01-25T00:54:54.541Z,0.00
2023-01-25T00:55:54.529Z,0.00
2023-01-25T00:56:54.517Z,0.00
2023-01-25T00:57:54.504Z,0.00
2023-01-25T00:58:54.492Z,0.00
2023-01-25T00:59:54.483Z,0.00
2023-01-25T01:00:54.540Z,0.00
2023-01-25T01:01:54.496Z,0.00
2023-01-25T01:02:54.447Z,0.00
2023-01-25T01:03:54.440Z,0.00
2023-01-25T01:04:54.536Z,0.00
2023-01-25T01:05:54.425Z,0.00
2023-01-25T01:06:54.413Z,0.00
2023-01-25T01:07:54.391Z,0.00
2023-01-25T01:08:54.384Z,0.00
2023-01-25T01:09:54.374Z,0.00
2023-01-25T01:10:54.361Z,0.00
2023-01-25T01:11:54.345Z,0.00
2023-01-25T01:12:54.351Z,0.00
2023-01-25T01:13:54.370Z,0.00
2023-01-25T01:14:54.337Z,0.00
2023-01-25T01:15:54.319Z,0.00
2023-01-25T01:16:55.891Z,0.00
2023-01-25T01:17:54.314Z,0.00
2023-01-25T01:18:54.301Z,0.00
2023-01-25T01:19:54.270Z,0.00
2023-01-25T01:20:54.260Z,0.00
2023-01-25T01:21:54.242Z,0.00
2023-01-25T01:22:54.237Z,0.00
2023-01-25T01:23:54.311Z,0.00
2023-01-25T01:24:54.215Z,0.00
2023-01-25T01:25:54.221Z,0.00
2023-01-25T01:26:54.183Z,0.00
2023-01-25T01:27:54.180Z,0.00
2023-01-25T01:28:54.165Z,0.00
2023-01-25T01:29:54.154Z,0.00
2023-01-25T01:30:54.150Z,0.00
2023-01-25T01:31:54.292Z,0.00
2023-01-25T01:32:54.348Z,0.00
2023-01-25T01:33:54.134Z,0.00
2023-01-25T01:34:54.105Z,0.00
2023-01-25T01:35:54.087Z,0.00
2023-01-25T01:36:54.079Z,0.00
2023-01-25T01:37:54.067Z,0.00
2023-01-25T01:38:54.057Z,0.00
2023-01-25T01:39:54.045Z,0.00
2023-01-25T01:40:54.031Z,0.00
2023-01-25T01:41:54.035Z,0.00
2023-01-25T01:42:54.006Z,0.00
2023-01-25T01:43:53.994Z,0.00
2023-01-25T01:44:53.988Z,0.00
2023-01-25T01:45:54.042Z,0.00
2023-01-25T01:46:53.970Z,0.00
2023-01-25T01:47:53.964Z,0.00
2023-01-25T01:48:53.945Z,0.00
2023-01-25T01:49:53.958Z,0.00
2023-01-25T01:50:53.934Z,0.00
2023-01-25T01:51:53.920Z,0.00
2023-01-25T01:52:53.912Z,0.00
2023-01-25T01:53:53.896Z,0.00
2023-01-25T01:54:53.872Z,0.00
2023-01-25T01:55:53.874Z,0.00
2023-01-25T01:56:53.851Z,0.00
2023-01-25T01:57:53.852Z,0.00
2023-01-25T01:58:53.836Z,0.00
2023-01-25T01:59:53.825Z,0.00
2023-01-25T02:00:53.876Z,0.00
2023-01-25T02:01:53.804Z,0.00
2023-01-25T02:02:53.856Z,0.00
2023-01-25T02:03:53.785Z,0.00
2023-01-25T02:04:53.775Z,0.00
2023-01-25T02:05:53.800Z,0.00
2023-01-25T02:06:53.749Z,0.00
2023-01-25T02:07:53.777Z,0.00
2023-01-25T02:08:53.727Z,0.00
2023-01-25T02:09:53.719Z,0.00
2023-01-25T02:10:53.697Z,0.00
2023-01-25T02:11:53.700Z,0.00
2023-01-25T02:12:53.679Z,0.00
2023-01-25T02:13:53.669Z,0.00
2023-01-25T02:14:53.660Z,0.00
2023-01-25T02:15:53.687Z,0.00
2023-01-25T02:16:53.629Z,0.00
2023-01-25T02:17:53.621Z,0.00
2023-01-25T02:18:53.623Z,0.00
2023-01-25T02:19:53.601Z,0.00
2023-01-25T02:20:53.600Z,0.00
2023-01-25T02:21:53.612Z,0.00
2023-01-25T02:22:53.571Z,0.00
2023-01-25T02:23:53.631Z,0.00
2023-01-25T02:24:53.551Z,0.00
2023-01-25T02:25:53.529Z,0.00
2023-01-25T02:26:53.530Z,0.00
2023-01-25T02:27:53.514Z,0.00
2023-01-25T02:28:53.502Z,0.00
2023-01-25T02:29:53.493Z,0.00
2023-01-25T02:30:53.593Z,0.00
2023-01-25T02:31:53.640Z,0.00
2023-01-25T02:32:53.453Z,0.00
2023-01-25T02:33:53.447Z,0.00
2023-01-25T02:34:53.435Z,0.00
2023-01-25T02:35:53.417Z,0.00
2023-01-25T02:36:53.419Z,0.00
2023-01-25T02:37:53.441Z,0.00
2023-01-25T02:38:53.393Z,0.00
2023-01-25T02:39:53.392Z,0.00
2023-01-25T02:40:53.382Z,0.00
2023-01-25T02:41:53.366Z,0.00
2023-01-25T02:42:53.345Z,0.00
2023-01-25T02:43:53.339Z,0.00
2023-01-25T02:44:53.325Z,0.00
2023-01-25T02:45:53.351Z,0.00
2023-01-25T02:46:53.304Z,0.00
2023-01-25T02:47:53.295Z,0.00
2023-01-25T02:48:53.274Z,0.00
2023-01-25T02:49:53.275Z,0.00
2023-01-25T02:50:53.253Z,0.00
2023-01-25T02:51:53.240Z,0.00
2023-01-25T02:52:53.233Z,0.00
2023-01-25T02:53:53.260Z,0.00
2023-01-25T02:54:53.213Z,0.00
2023-01-25T02:55:53.207Z,0.00
2023-01-25T02:56:53.195Z,0.00
2023-01-25T02:57:53.181Z,0.00
2023-01-25T02:58:53.170Z,0.00
2023-01-25T02:59:53.166Z,0.00
2023-01-25T03:00:53.143Z,0.00
2023-01-25T03:01:53.233Z,0.00
2023-01-25T03:02:53.204Z,0.00
2023-01-25T03:03:53.117Z,0.00
2023-01-25T03:04:53.106Z,0.00
2023-01-25T03:05:53.091Z,0.00
2023-01-25T03:06:53.080Z,0.00
2023-01-25T03:07:53.077Z,0.00
2023-01-25T03:08:53.062Z,0.00
2023-01-25T03:09:53.073Z,0.00
2023-01-25T03:10:53.039Z,0.00
2023-01-25T03:11:53.020Z,0.00
2023-01-25T03:12:53.021Z,0.00
2023-01-25T03:13:53.004Z,0.00
2023-01-25T03:14:53.005Z,0.00
2023-01-25T03:15:52.993Z,0.00
2023-01-25T03:16:52.989Z,0.00
2023-01-25T03:17:52.996Z,0.00
2023-01-25T03:18:52.944Z,0.00
2023-01-25T03:19:52.939Z,0.00
2023-01-25T03:20:52.931Z,0.00
2023-01-25T03:21:52.939Z,0.00
2023-01-25T03:22:52.915Z,0.00
2023-01-25T03:23:52.912Z,0.00
2023-01-25T03:24:52.884Z,0.00
2023-01-25T03:25:52.897Z,0.00
2023-01-25T03:26:52.855Z,0.00
2023-01-25T03:27:52.850Z,0.00
2023-01-25T03:28:52.844Z,0.00
2023-01-25T03:29:52.839Z,0.00
2023-01-25T03:30:52.818Z,0.00
2023-01-25T03:31:52.956Z,0.00
2023-01-25T03:32:52.794Z,0.00
2023-01-25T03:33:52.788Z,0.00
2023-01-25T03:34:52.777Z,0.00
2023-01-25T03:35:52.827Z,0.00
2023-01-25T03:36:52.760Z,0.00
2023-01-25T03:37:52.743Z,0.00
2023-01-25T03:38:52.736Z,0.00
2023-01-25T03:39:52.712Z,0.00
2023-01-25T03:40:52.707Z,0.00
2023-01-25T03:41:52.717Z,0.00
2023-01-25T03:42:52.682Z,0.00
2023-01-25T03:43:52.679Z,0.00
2023-01-25T03:44:52.657Z,0.00
2023-01-25T03:45:52.652Z,0.00
2023-01-25T03:46:52.690Z,0.00
2023-01-25T03:47:52.624Z,0.00
2023-01-25T03:48:52.619Z,0.00
2023-01-25T03:49:52.608Z,0.00
2023-01-25T03:50:52.607Z,0.00
2023-01-25T03:51:52.580Z,0.00
2023-01-25T03:52:52.567Z,0.00
2023-01-25T03:53:52.571Z,0.00
2023-01-25T03:54:52.554Z,0.00
2023-01-25T03:55:52.537Z,0.00
2023-01-25T03:56:52.525Z,0.00
2023-01-25T03:57:52.547Z,0.00
2023-01-25T03:58:52.505Z,0.00
2023-01-25T03:59:52.497Z,0.00
2023-01-25T04:00:52.559Z,0.00
2023-01-25T04:01:52.548Z,0.00
2023-01-25T04:02:52.459Z,0.00
2023-01-25T04:03:52.453Z,0.00
2023-01-25T04:04:52.443Z,0.00
2023-01-25T04:05:52.435Z,0.00
2023-01-25T04:06:52.420Z,0.00
2023-01-25T04:07:52.419Z,0.00
2023-01-25T04:08:52.406Z,0.00
2023-01-25T04:09:52.387Z,0.00
2023-01-25T04:10:52.376Z,0.00
2023-01-25T04:11:52.367Z,0.00
2023-01-25T04:12:52.367Z,0.00
2023-01-25T04:13:52.367Z,0.00
2023-01-25T04:14:52.326Z,0.00
2023-01-25T04:15:52.327Z,0.00
2023-01-25T04:16:52.353Z,0.00
2023-01-25T04:17:52.293Z,0.00
2023-01-25T04:18:52.284Z,0.00
2023-01-25T04:19:52.276Z,0.00
2023-01-25T04:20:52.272Z,0.00
2023-01-25T04:21:52.254Z,0.00
2023-01-25T04:22:52.250Z,0.00
2023-01-25T04:23:52.313Z,0.00
2023-01-25T04:24:52.222Z,0.00
2023-01-25T04:25:52.214Z,0.00
2023-01-25T04:26:52.208Z,0.00
2023-01-25T04:27:52.200Z,0.00
2023-01-25T04:28:52.191Z,0.00
2023-01-25T04:29:52.194Z,0.00
2023-01-25T04:30:52.157Z,0.00
2023-01-25T04:31:52.264Z,0.00
2023-01-25T04:32:52.229Z,0.00
2023-01-25T04:33:52.126Z,0.00
2023-01-25T04:34:52.121Z,0.00
2023-01-25T04:35:52.095Z,0.00
2023-01-25T04:36:52.094Z,0.00
2023-01-25T04:37:52.079Z,0.00
2023-01-25T04:38:52.067Z,0.00
2023-01-25T04:39:52.052Z,0.00
2023-01-25T04:40:52.043Z,0.00
2023-01-25T04:41:52.049Z,0.00
2023-01-25T04:42:52.037Z,0.00
2023-01-25T04:43:52.016Z,0.00
2023-01-25T04:44:52.000Z,0.00
2023-01-25T04:45:52.094Z,0.00
2023-01-25T04:46:51.987Z,0.00
2023-01-25T04:47:51.976Z,0.00
2023-01-25T04:48:51.953Z,0.00
2023-01-25T04:49:51.953Z,0.00
2023-01-25T04:50:51.935Z,0.00
2023-01-25T04:51:51.924Z,0.00
2023-01-25T04:52:51.908Z,0.00
2023-01-25T04:53:51.896Z,0.00
2023-01-25T04:54:51.887Z,0.00
2023-01-25T04:55:51.879Z,0.00
2023-01-25T04:56:51.870Z,0.00
2023-01-25T04:57:51.858Z,0.00
2023-01-25T04:58:51.847Z,0.00
2023-01-25T04:59:51.830Z,0.00
2023-01-25T05:00:51.857Z,0.00
2023-01-25T05:01:51.852Z,0.00
2023-01-25T05:02:51.804Z,0.00
2023-01-25T05:03:51.795Z,0.00
2023-01-25T05:04:51.798Z,0.00
2023-01-25T05:05:51.799Z,0.00
2023-01-25T05:06:51.767Z,0.00
2023-01-25T05:07:51.746Z,0.00
2023-01-25T05:08:51.745Z,0.00
2023-01-25T05:09:51.730Z,0.00
2023-01-25T05:10:51.715Z,0.00
2023-01-25T05:11:51.702Z,0.00
2023-01-25T05:12:51.702Z,0.00
2023-01-25T05:13:51.683Z,0.00
2023-01-25T05:14:51.665Z,0.00
2023-01-25T05:15:51.660Z,0.00
2023-01-25T05:16:51.705Z,0.00
2023-01-25T05:17:51.665Z,0.00
2023-01-25T05:18:51.627Z,0.00
2023-01-25T05:19:51.623Z,0.00
2023-01-25T05:20:51.612Z,0.00
2023-01-25T05:21:51.610Z,0.00
2023-01-25T05:22:51.583Z,0.00
2023-01-25T05:23:51.611Z,0.00
2023-01-25T05:24:51.564Z,0.00
2023-01-25T05:25:51.542Z,0.00
2023-01-25T05:26:51.538Z,0.00
2023-01-25T05:27:51.522Z,0.00
2023-01-25T05:28:51.517Z,0.00
2023-01-25T05:29:51.515Z,0.00
2023-01-25T05:30:51.597Z,0.00
2023-01-25T05:31:51.525Z,0.00
2023-01-25T05:32:51.478Z,0.00
2023-01-25T05:33:51.484Z,0.00
2023-01-25T05:34:51.443Z,0.00
2023-01-25T05:35:51.432Z,0.00
2023-01-25T05:36:51.435Z,0.00
2023-01-25T05:37:51.418Z,0.00
2023-01-25T05:38:51.403Z,0.00
2023-01-25T05:39:51.395Z,0.00
2023-01-25T05:40:51.382Z,0.00
2023-01-25T05:41:51.386Z,0.00
2023-01-25T05:42:51.356Z,0.00
2023-01-25T05:43:51.351Z,0.00
2023-01-25T05:44:51.336Z,0.00
2023-01-25T05:45:51.357Z,0.00
2023-01-25T05:46:51.319Z,0.00
2023-01-25T05:47:51.316Z,0.00
2023-01-25T05:48:51.291Z,0.00
2023-01-25T05:49:51.312Z,0.00
2023-01-25T05:50:51.276Z,0.00
2023-01-25T05:51:51.257Z,0.00
2023-01-25T05:52:51.252Z,0.00
2023-01-25T05:53:51.241Z,0.00
2023-01-25T05:54:51.240Z,0.00
2023-01-25T05:55:51.229Z,0.00
2023-01-25T05:56:51.226Z,0.00
2023-01-25T05:57:51.192Z,0.00
2023-01-25T05:58:51.190Z,0.00
2023-01-25T05:59:51.184Z,0.00
2023-01-25T06:00:51.169Z,0.00
2023-01-25T06:01:51.155Z,0.00
2023-01-25T06:02:51.355Z,0.00
2023-01-25T06:03:51.136Z,0.00
2023-01-25T06:04:51.116Z,0.00
2023-01-25T06:05:51.144Z,0.00
2023-01-25T06:06:51.095Z,0.00
2023-01-25T06:07:51.082Z,0.00
2023-01-25T06:08:51.077Z,0.00
2023-01-25T06:09:51.072Z,0.00
2023-01-25T06:10:51.064Z,0.00
2023-01-25T06:11:51.057Z,0.00
2023-01-25T06:12:51.038Z,0.00
2023-01-25T06:13:51.023Z,0.00
2023-01-25T06:14:51.017Z,0.00
2023-01-25T06:15:51.045Z,0.00
2023-01-25T06:16:50.998Z,0.00
2023-01-25T06:17:50.978Z,0.00
2023-01-25T06:18:50.968Z,0.00
2023-01-25T06:19:50.959Z,0.00
2023-01-25T06:20:50.937Z,0.00
2023-01-25T06:21:50.955Z,0.00
2023-01-25T06:22:50.930Z,0.00
2023-01-25T06:23:50.942Z,0.00
2023-01-25T06:24:50.900Z,0.00
2023-01-25T06:25:50.883Z,0.00
2023-01-25T06:26:50.872Z,0.00
2023-01-25T06:27:50.871Z,0.00
2023-01-25T06:28:52.655Z,0.00
2023-01-25T06:29:50.846Z,0.00
2023-01-25T06:30:50.921Z,0.00
2023-01-25T06:31:50.896Z,0.00
2023-01-25T06:32:50.815Z,0.00
2023-01-25T06:33:50.793Z,0.00
2023-01-25T06:34:50.784Z,0.00
2023-01-25T06:35:50.787Z,0.00
2023-01-25T06:36:50.767Z,0.00
2023-01-25T06:37:50.777Z,0.00
2023-01-25T06:38:50.786Z,4.00
2023-01-25T06:39:50.752Z,4.00
2023-01-25T06:40:50.716Z,4.00
2023-01-25T06:41:50.724Z,4.00
2023-01-25T06:42:50.706Z,0.00
2023-01-25T06:43:50.688Z,0.00
2023-01-25T06:44:50.690Z,4.00
2023-01-25T06:45:50.675Z,4.00
2023-01-25T06:46:50.730Z,4.00
2023-01-25T06:47:50.644Z,4.00
2023-01-25T06:48:50.639Z,4.00
2023-01-25T06:49:50.629Z,4.00
2023-01-25T06:50:50.611Z,4.00
2023-01-25T06:51:50.605Z,4.00
2023-01-25T06:52:50.585Z,8.00
2023-01-25T06:53:50.614Z,8.00
2023-01-25T06:54:50.567Z,4.00
2023-01-25T06:55:52.563Z,4.00
2023-01-25T06:56:50.541Z,4.00
2023-01-25T06:57:50.532Z,8.00
2023-01-25T06:58:50.528Z,8.00
2023-01-25T06:59:50.513Z,8.00
2023-01-25T07:00:50.507Z,12.00
2023-01-25T07:01:50.560Z,12.00
2023-01-25T07:02:50.535Z,12.00
2023-01-25T07:03:50.474Z,12.00
2023-01-25T07:04:50.457Z,16.00
2023-01-25T07:05:50.446Z,16.00
2023-01-25T07:06:50.443Z,16.00
2023-01-25T07:07:50.430Z,16.00
2023-01-25T07:08:50.416Z,16.00
2023-01-25T07:09:50.436Z,16.00
2023-01-25T07:10:50.393Z,20.00
2023-01-25T07:11:50.372Z,20.00
2023-01-25T07:12:50.373Z,20.00
2023-01-25T07:13:50.357Z,24.00
2023-01-25T07:14:50.349Z,24.00
2023-01-25T07:15:50.334Z,24.00
2023-01-25T07:16:50.334Z,24.00
2023-01-25T07:17:50.316Z,28.00
2023-01-25T07:18:50.305Z,28.00
2023-01-25T07:19:50.291Z,32.00
2023-01-25T07:20:50.276Z,28.00
2023-01-25T07:21:50.272Z,32.00
2023-01-25T07:22:50.254Z,32.00
2023-01-25T07:23:50.342Z,32.00
2023-01-25T07:24:52.264Z,32.00
2023-01-25T07:25:50.253Z,36.00
2023-01-25T07:26:50.206Z,40.00
2023-01-25T07:27:52.200Z,40.00
2023-01-25T07:28:50.183Z,40.00
2023-01-25T07:29:50.186Z,44.00
2023-01-25T07:30:50.169Z,40.00
2023-01-25T07:31:50.203Z,40.00
2023-01-25T07:32:50.145Z,40.00
2023-01-25T07:33:50.137Z,40.00
2023-01-25T07:34:50.138Z,44.00
2023-01-25T07:35:50.112Z,48.00
2023-01-25T07:36:50.093Z,44.00
2023-01-25T07:37:50.089Z,44.00
2023-01-25T07:38:50.085Z,48.00
2023-01-25T07:39:50.068Z,52.00
2023-01-25T07:40:50.076Z,52.00
2023-01-25T07:41:50.069Z,56.00
2023-01-25T07:42:50.032Z,60.00
2023-01-25T07:43:50.033Z,68.00
2023-01-25T07:44:50.006Z,72.00
2023-01-25T07:45:49.999Z,76.00
2023-01-25T07:46:49.998Z,80.00
2023-01-25T07:47:49.972Z,84.00
2023-01-25T07:48:49.965Z,92.00
2023-01-25T07:49:49.950Z,92.00
2023-01-25T07:50:49.950Z,96.00
2023-01-25T07:51:49.932Z,96.00
2023-01-25T07:52:49.932Z,96.00
2023-01-25T07:53:49.904Z,96.00
2023-01-25T07:54:49.894Z,92.00
2023-01-25T07:55:49.894Z,92.00
2023-01-25T07:56:49.874Z,96.00
2023-01-25T07:57:49.891Z,96.00
2023-01-25T07:58:49.857Z,96.00
2023-01-25T07:59:49.842Z,92.00
2023-01-25T08:00:49.839Z,92.00
2023-01-25T08:01:49.834Z,104.00
2023-01-25T08:02:51.832Z,108.00
2023-01-25T08:03:49.798Z,108.00
2023-01-25T08:04:49.789Z,108.00
2023-01-25T08:05:49.778Z,108.00
2023-01-25T08:06:49.770Z,108.00
2023-01-25T08:07:49.770Z,116.00
2023-01-25T08:08:49.750Z,116.00
2023-01-25T08:09:49.737Z,112.00
2023-01-25T08:10:49.714Z,112.00
2023-01-25T08:11:49.717Z,116.00
2023-01-25T08:12:49.699Z,128.00
2023-01-25T08:13:51.720Z,132.00
2023-01-25T08:14:49.677Z,136.00
2023-01-25T08:15:49.667Z,140.00
2023-01-25T08:16:49.656Z,136.00
2023-01-25T08:17:49.638Z,132.00
2023-01-25T08:18:49.634Z,124.00
2023-01-25T08:19:49.639Z,128.00
2023-01-25T08:20:49.607Z,132.00
2023-01-25T08:21:49.603Z,132.00
2023-01-25T08:22:49.595Z,136.00
2023-01-25T08:23:49.628Z,144.00
2023-01-25T08:24:49.563Z,160.00
2023-01-25T08:25:49.564Z,164.00
2023-01-25T08:26:49.539Z,168.00
2023-01-25T08:27:49.548Z,172.00
2023-01-25T08:28:49.516Z,180.00
2023-01-25T08:29:49.529Z,180.00
2023-01-25T08:30:57.324Z,180.00
2023-01-25T08:31:49.646Z,176.00
2023-01-25T08:32:49.494Z,180.00
2023-01-25T08:33:49.469Z,184.00
2023-01-25T08:34:49.457Z,180.00
2023-01-25T08:35:49.453Z,184.00
2023-01-25T08:37:49.424Z,180.00
2023-01-25T08:38:49.409Z,180.00
2023-01-25T08:39:49.394Z,180.00
2023-01-25T08:40:49.396Z,180.00
2023-01-25T08:41:49.374Z,180.00
2023-01-25T08:42:49.386Z,180.00
2023-01-25T08:43:49.363Z,176.00
2023-01-25T08:44:49.377Z,184.00
2023-01-25T08:45:49.357Z,188.00
2023-01-25T08:46:49.506Z,188.00
2023-01-25T08:47:49.321Z,192.00
2023-01-25T08:48:49.305Z,196.00
2023-01-25T08:49:49.289Z,200.00
2023-01-25T08:50:49.278Z,200.00
2023-01-25T08:51:49.465Z,196.00
2023-01-25T08:52:49.259Z,196.00
2023-01-25T08:53:49.251Z,192.00
2023-01-25T08:54:49.231Z,184.00
2023-01-25T08:55:49.223Z,180.00
2023-01-25T08:56:49.212Z,184.00
2023-01-25T08:57:49.203Z,192.00
2023-01-25T08:58:49.195Z,200.00
2023-01-25T08:59:49.183Z,200.00
2023-01-25T09:00:49.166Z,200.00
2023-01-25T09:01:49.191Z,200.00
2023-01-25T09:02:49.148Z,200.00
2023-01-25T09:03:49.278Z,196.00
2023-01-25T09:04:49.128Z,204.00
2023-01-25T09:05:49.114Z,216.00
2023-01-25T09:06:49.115Z,220.00
2023-01-25T09:07:49.091Z,216.00
2023-01-25T09:08:49.082Z,212.00
2023-01-25T09:09:49.075Z,216.00
2023-01-25T09:10:49.068Z,224.00
2023-01-25T09:11:49.052Z,232.00
2023-01-25T09:12:49.031Z,232.00
2023-01-25T09:13:49.129Z,228.00
2023-01-25T09:14:49.019Z,236.00
2023-01-25T09:15:49.015Z,236.00
2023-01-25T09:16:48.998Z,232.00
2023-01-25T09:17:49.011Z,240.00
2023-01-25T09:18:50.737Z,240.00
2023-01-25T09:20:48.953Z,248.00
2023-01-25T09:21:48.938Z,252.00
2023-01-25T09:22:48.931Z,252.00
2023-01-25T09:24:05.143Z,260.00
2023-01-25T09:24:48.992Z,264.00
2023-01-25T09:25:48.897Z,264.00
2023-01-25T09:26:58.983Z,272.00
2023-01-25T09:27:48.872Z,264.00
2023-01-25T09:28:48.864Z,260.00
2023-01-25T09:30:01.046Z,264.00
2023-01-25T09:30:59.143Z,268.00
2023-01-25T09:31:48.922Z,272.00
2023-01-25T09:32:49.020Z,276.00
2023-01-25T09:33:48.837Z,272.00
2023-01-25T09:34:48.803Z,268.00
2023-01-25T09:35:48.777Z,268.00
2023-01-25T09:36:48.775Z,272.00
2023-01-25T09:37:48.764Z,272.00
2023-01-25T09:38:48.750Z,264.00
2023-01-25T09:39:48.745Z,260.00
2023-01-25T09:40:48.723Z,248.00
2023-01-25T09:41:48.716Z,232.00
2023-01-25T09:42:48.707Z,216.00
2023-01-25T09:43:48.689Z,228.00
2023-01-25T09:44:48.684Z,244.00
2023-01-25T09:45:48.666Z,248.00
2023-01-25T09:46:48.675Z,248.00
2023-01-25T09:47:48.657Z,232.00
2023-01-25T09:48:51.797Z,220.00
2023-01-25T09:49:48.653Z,212.00
2023-01-25T09:50:48.617Z,228.00
2023-01-25T09:51:48.606Z,236.00
2023-01-25T09:52:48.591Z,196.00
2023-01-25T09:53:48.578Z,184.00
2023-01-25T09:54:48.586Z,192.00
2023-01-25T09:55:48.560Z,212.00
2023-01-25T09:56:48.551Z,216.00
2023-01-25T09:57:48.537Z,220.00
2023-01-25T09:58:48.522Z,248.00
2023-01-25T09:59:48.531Z,268.00
2023-01-25T10:00:48.509Z,280.00
2023-01-25T10:01:48.527Z,288.00
2023-01-25T10:02:48.495Z,288.00
2023-01-25T10:03:48.718Z,304.00
2023-01-25T10:04:48.463Z,320.00
2023-01-25T10:05:48.482Z,328.00
2023-01-25T10:06:59.672Z,352.00
2023-01-25T10:07:48.443Z,340.00
2023-01-25T10:08:48.414Z,328.00
2023-01-25T10:09:48.473Z,316.00
2023-01-25T10:10:48.392Z,312.00
2023-01-25T10:11:48.381Z,304.00
2023-01-25T10:12:48.383Z,296.00
2023-01-25T10:13:48.364Z,292.00
2023-01-25T10:14:48.366Z,292.00
2023-01-25T10:15:48.408Z,288.00
2023-01-25T10:16:48.444Z,292.00
2023-01-25T10:17:48.324Z,288.00
2023-01-25T10:18:48.313Z,288.00
2023-01-25T10:19:48.349Z,292.00
2023-01-25T10:20:48.288Z,304.00
2023-01-25T10:21:48.297Z,308.00
2023-01-25T10:22:48.257Z,304.00
2023-01-25T10:23:48.263Z,304.00
2023-01-25T10:24:48.235Z,300.00
2023-01-25T10:25:48.223Z,300.00
2023-01-25T10:26:48.219Z,304.00
2023-01-25T10:27:48.259Z,308.00
2023-01-25T10:28:48.202Z,308.00
2023-01-25T10:29:48.224Z,300.00
2023-01-25T10:30:48.235Z,300.00
2023-01-25T10:31:48.171Z,304.00
2023-01-25T10:32:55.884Z,304.00
2023-01-25T10:33:48.169Z,312.00
2023-01-25T10:34:56.344Z,304.00
2023-01-25T10:35:48.427Z,300.00
2023-01-25T10:36:48.105Z,296.00
2023-01-25T10:37:48.127Z,296.00
2023-01-25T10:38:48.082Z,296.00
2023-01-25T10:39:48.074Z,300.00
2023-01-25T10:40:48.065Z,296.00
2023-01-25T10:41:48.296Z,300.00
2023-01-25T10:42:48.037Z,296.00
2023-01-25T10:43:48.031Z,288.00
2023-01-25T10:44:48.020Z,280.00
2023-01-25T10:45:48.019Z,284.00
2023-01-25T10:46:48.016Z,280.00
2023-01-25T10:47:47.983Z,280.00
2023-01-25T10:48:47.979Z,284.00
2023-01-25T10:49:48.021Z,292.00
2023-01-25T10:50:47.990Z,300.00
2023-01-25T10:51:47.952Z,304.00
2023-01-25T10:52:47.933Z,308.00
2023-01-25T10:53:47.939Z,320.00
2023-01-25T10:54:47.919Z,336.00
2023-01-25T10:55:47.897Z,340.00
2023-01-25T10:56:47.892Z,348.00
2023-01-25T10:57:47.879Z,348.00
2023-01-25T10:58:47.866Z,332.00
2023-01-25T10:59:47.916Z,320.00
2023-01-25T11:00:47.844Z,320.00
2023-01-25T11:01:47.872Z,320.00
2023-01-25T11:02:47.900Z,320.00
2023-01-25T11:03:47.805Z,320.00
2023-01-25T11:04:47.807Z,324.00
2023-01-25T11:05:47.791Z,324.00
2023-01-25T11:06:47.773Z,316.00
2023-01-25T11:07:47.773Z,312.00
2023-01-25T11:08:47.752Z,312.00
2023-01-25T11:09:47.779Z,312.00
2023-01-25T11:10:47.748Z,312.00
2023-01-25T11:11:47.727Z,324.00
2023-01-25T11:12:47.722Z,324.00
2023-01-25T11:13:47.695Z,324.00
2023-01-25T11:14:47.709Z,328.00
2023-01-25T11:15:47.736Z,324.00
2023-01-25T11:16:47.673Z,328.00
2023-01-25T11:17:49.603Z,324.00
2023-01-25T11:18:47.639Z,332.00
2023-01-25T11:19:47.634Z,344.00
2023-01-25T11:20:47.623Z,352.00
2023-01-25T11:21:47.613Z,352.00
2023-01-25T11:22:47.637Z,344.00
2023-01-25T11:23:49.152Z,344.00
2023-01-25T11:24:47.630Z,336.00
2023-01-25T11:25:47.591Z,368.00
2023-01-25T11:26:47.562Z,356.00
2023-01-25T11:27:47.546Z,356.00
2023-01-25T11:28:47.527Z,364.00
2023-01-25T11:29:47.539Z,360.00
2023-01-25T11:30:47.611Z,352.00
2023-01-25T11:31:47.561Z,364.00
2023-01-25T11:32:47.526Z,360.00
2023-01-25T11:33:47.482Z,360.00
2023-01-25T11:34:47.468Z,376.00
2023-01-25T11:35:47.503Z,392.00
2023-01-25T11:36:47.461Z,400.00
2023-01-25T11:37:47.434Z,420.00
2023-01-25T11:38:47.423Z,424.00
2023-01-25T11:39:47.414Z,416.00
2023-01-25T11:40:47.409Z,392.00
2023-01-25T11:41:47.435Z,380.00
2023-01-25T11:42:47.379Z,388.00
2023-01-25T11:43:47.369Z,360.00
2023-01-25T11:44:47.355Z,316.00
2023-01-25T11:45:47.349Z,288.00
2023-01-25T11:46:47.436Z,308.00
2023-01-25T11:47:47.317Z,292.00
2023-01-25T11:48:47.316Z,264.00
2023-01-25T11:49:47.313Z,256.00
2023-01-25T11:50:47.311Z,264.00
2023-01-25T11:51:48.923Z,260.00
2023-01-25T11:52:47.269Z,280.00
2023-01-25T11:53:47.269Z,312.00
2023-01-25T11:54:47.248Z,312.00
2023-01-25T11:55:47.241Z,292.00
2023-01-25T11:56:47.233Z,292.00
2023-01-25T11:57:47.243Z,300.00
2023-01-25T11:58:47.202Z,304.00
2023-01-25T11:59:47.194Z,324.00
2023-01-25T12:00:47.174Z,324.00
2023-01-25T12:01:47.170Z,336.00
2023-01-25T12:02:47.199Z,348.00
2023-01-25T12:03:47.202Z,348.00
2023-01-25T12:04:47.130Z,360.00
2023-01-25T12:05:47.118Z,336.00
2023-01-25T12:06:47.115Z,308.00
2023-01-25T12:07:47.113Z,300.00
2023-01-25T12:08:47.101Z,304.00
2023-01-25T12:09:47.095Z,300.00
2023-01-25T12:10:47.067Z,296.00
2023-01-25T12:11:47.067Z,292.00
2023-01-25T12:12:47.060Z,292.00
2023-01-25T12:13:47.066Z,316.00
2023-01-25T12:14:47.018Z,348.00
2023-01-25T12:15:47.120Z,344.00
2023-01-25T12:16:46.996Z,316.00
2023-01-25T12:17:46.992Z,312.00
2023-01-25T12:18:46.986Z,308.00
2023-01-25T12:19:46.989Z,312.00
2023-01-25T12:20:46.959Z,308.00
2023-01-25T12:21:46.948Z,308.00
2023-01-25T12:22:46.930Z,292.00
2023-01-25T12:23:46.963Z,276.00
2023-01-25T12:24:46.908Z,300.00
2023-01-25T12:25:46.907Z,292.00
2023-01-25T12:26:46.893Z,264.00
2023-01-25T12:27:46.885Z,272.00
2023-01-25T12:28:46.875Z,296.00
2023-01-25T12:29:46.879Z,308.00
2023-01-25T12:30:46.860Z,304.00
2023-01-25T12:31:46.893Z,296.00
2023-01-25T12:32:46.818Z,300.00
2023-01-25T12:33:46.826Z,296.00
2023-01-25T12:34:46.818Z,268.00
2023-01-25T12:35:46.788Z,264.00
2023-01-25T12:36:46.781Z,264.00
2023-01-25T12:37:46.782Z,272.00
2023-01-25T12:38:46.753Z,268.00
2023-01-25T12:39:46.759Z,276.00
2023-01-25T12:40:46.752Z,268.00
2023-01-25T12:41:46.792Z,264.00
2023-01-25T12:42:46.709Z,256.00
2023-01-25T12:43:46.704Z,252.00
2023-01-25T12:44:46.693Z,252.00
2023-01-25T12:45:46.749Z,248.00
2023-01-25T12:46:46.699Z,232.00
2023-01-25T12:47:46.662Z,212.00
2023-01-25T12:48:46.665Z,196.00
2023-01-25T12:49:46.629Z,188.00
2023-01-25T12:50:46.619Z,184.00
2023-01-25T12:51:46.613Z,184.00
2023-01-25T12:52:46.613Z,180.00
2023-01-25T12:53:46.605Z,184.00
2023-01-25T12:54:46.588Z,216.00
2023-01-25T12:55:46.588Z,232.00
2023-01-25T12:56:46.599Z,236.00
2023-01-25T12:57:46.542Z,236.00
2023-01-25T12:58:46.541Z,236.00